createdAt,value
2019-05-12T14:07:29.945Z,95996.85
2019-05-12T14:09:56.084Z,95998.37
2019-05-12T14:12:22.008Z,95999.63
2019-05-12T14:14:48.140Z,96009.70
2019-05-12T14:17:14.935Z,96013.94
2019-05-12T14:19:40.874Z,96025.55
2019-05-12T14:22:07.254Z,96031.77
2019-05-12T14:24:42.206Z,96038.17
2019-05-12T14:27:01.162Z,96034.71
2019-05-12T14:29:30.522Z,96039.81
2019-05-12T14:32:01.917Z,96044.92
2019-05-12T14:34:23.641Z,96046.56
2019-05-12T14:36:49.751Z,96051.92
2019-05-12T14:39:15.778Z,96055.95
2019-05-12T14:41:45.766Z,96059.92
2019-05-12T14:44:09.959Z,96070.05
2019-05-12T14:46:40.056Z,96068.39
2019-05-12T14:49:03.858Z,96070.46
2019-05-12T14:51:29.959Z,96067.46
2019-05-12T14:53:55.963Z,96069.02
2019-05-12T14:56:23.333Z,96070.91
2019-05-12T14:58:50.179Z,96072.52
2019-05-12T15:01:17.766Z,96068.22
2019-05-12T15:03:47.820Z,96089.06
2019-05-12T15:06:13.981Z,96082.91
2019-05-12T15:08:40.464Z,96081.80
2019-05-12T15:11:06.602Z,96091.91
2019-05-12T15:13:34.301Z,96098.36
2019-05-12T15:16:00.519Z,96097.02
2019-05-12T15:18:26.637Z,96097.41
2019-05-12T15:20:54.467Z,96103.39
2019-05-12T15:23:23.963Z,96099.13
2019-05-12T15:25:50.905Z,96099.73
2019-05-12T15:28:16.435Z,96108.30
2019-05-12T15:30:43.631Z,96109.13
2019-05-12T15:33:09.976Z,96105.16
2019-05-12T15:35:35.887Z,96108.92
2019-05-12T15:38:03.702Z,96106.55
2019-05-12T15:40:30.082Z,96112.70
2019-05-12T15:43:00.420Z,96121.31
2019-05-12T15:45:24.187Z,96114.61
2019-05-12T15:47:50.295Z,96119.45
2019-05-12T15:50:16.412Z,96117.03
2019-05-12T15:52:45.382Z,96117.33
2019-05-12T15:55:10.784Z,96129.14
2019-05-12T15:57:36.891Z,96131.84
2019-05-12T16:00:07.683Z,96134.20
2019-05-12T16:02:34.048Z,96140.53
2019-05-12T16:05:00.407Z,96145.59
2019-05-12T16:07:29.460Z,96148.22
2019-05-12T16:09:54.764Z,96146.34
2019-05-12T16:12:24.351Z,96145.17
2019-05-12T16:14:49.247Z,96150.52
2019-05-12T16:17:18.494Z,96154.17
2019-05-12T16:19:43.904Z,96159.00
2019-05-12T16:22:10.030Z,96166.30
2019-05-12T16:24:36.129Z,96164.12
2019-05-12T16:27:03.613Z,96169.12
2019-05-12T16:29:29.878Z,96175.75
2019-05-12T16:31:55.891Z,96173.25
2019-05-12T16:34:22.003Z,96175.27
2019-05-12T16:36:52.066Z,96179.97
2019-05-12T16:39:16.055Z,96184.95
2019-05-12T16:41:43.857Z,96185.64
2019-05-12T16:44:17.620Z,96189.58
2019-05-12T16:46:38.106Z,96196.44
2019-05-12T16:49:04.217Z,96204.91
2019-05-12T16:51:30.223Z,96206.65
2019-05-12T16:53:56.228Z,96201.19
2019-05-12T16:56:28.073Z,96210.89
2019-05-12T16:58:50.331Z,96217.97
2019-05-12T17:01:19.508Z,96222.90
2019-05-12T17:03:44.611Z,96223.33
2019-05-12T17:06:11.322Z,96230.40
2019-05-12T17:08:37.329Z,96230.55
2019-05-12T17:11:23.365Z,96236.55
2019-05-12T17:13:33.598Z,96240.43
2019-05-12T17:16:00.265Z,96236.53
2019-05-12T17:18:26.362Z,96240.78
2019-05-12T17:20:54.584Z,96244.92
2019-05-12T17:23:20.288Z,96249.06
2019-05-12T17:25:46.402Z,96256.36
2019-05-12T17:28:13.254Z,96253.98
2019-05-12T17:30:39.437Z,96267.23
2019-05-12T17:33:05.591Z,96263.01
2019-05-12T17:35:48.610Z,96260.97
2019-05-12T17:38:19.738Z,96264.59
2019-05-12T17:40:44.094Z,96274.33
2019-05-12T17:43:11.978Z,96277.35
2019-05-12T17:45:38.184Z,96285.99
2019-05-12T17:48:07.714Z,96282.56
2019-05-12T17:50:34.422Z,96291.59
2019-05-12T17:53:00.680Z,96300.08
2019-05-12T17:55:26.885Z,96309.75
2019-05-12T17:57:56.174Z,96312.72
2019-05-12T18:00:23.336Z,96317.30
2019-05-12T18:02:49.548Z,96308.92
2019-05-12T18:05:17.314Z,96315.09
2019-05-12T18:07:44.322Z,96317.86
2019-05-12T18:10:13.450Z,96327.58
2019-05-12T18:12:44.767Z,96334.33
2019-05-12T18:15:08.416Z,96332.80
2019-05-12T18:17:39.009Z,96336.69
2019-05-12T18:20:05.113Z,96339.16
2019-05-12T18:22:31.230Z,96338.05
2019-05-12T18:24:57.436Z,96344.17
2019-05-12T18:27:23.450Z,96341.59
2019-05-12T18:29:49.565Z,96350.55
2019-05-12T18:32:15.690Z,96354.48
2019-05-12T18:34:44.315Z,96361.51
2019-05-12T18:37:09.733Z,96370.46
2019-05-12T18:39:35.845Z,96373.42
2019-05-12T18:42:03.525Z,96372.22
2019-05-12T18:44:31.636Z,96379.05
2019-05-12T18:46:57.759Z,96380.22
2019-05-12T18:49:24.042Z,96381.17
2019-05-12T18:51:55.227Z,96384.19
2019-05-12T18:54:18.195Z,96388.31
2019-05-12T18:56:44.298Z,96390.81
2019-05-12T18:59:11.792Z,96393.63
2019-05-12T19:01:38.531Z,96401.75
2019-05-12T19:04:04.644Z,96403.52
2019-05-12T19:06:30.653Z,96408.08
2019-05-12T19:08:56.687Z,96407.19
2019-05-12T19:11:31.310Z,96421.23
2019-05-12T19:13:52.332Z,96423.00
2019-05-12T19:16:18.818Z,96428.27
2019-05-12T19:18:47.816Z,96427.98
2019-05-12T19:21:16.565Z,96426.55
2019-05-12T19:23:40.828Z,96422.45
2019-05-12T19:26:06.832Z,96424.41
2019-05-12T19:28:34.228Z,96435.88
2019-05-12T19:31:05.082Z,96435.27
2019-05-12T19:33:28.374Z,96437.47
2019-05-12T19:35:59.860Z,96440.53
2019-05-12T19:38:23.973Z,96440.25
2019-05-12T19:40:58.693Z,96442.30
2019-05-12T19:43:18.235Z,96451.73
2019-05-12T19:45:44.335Z,96451.15
2019-05-12T19:48:23.352Z,96449.20
2019-05-12T19:50:38.385Z,96460.67
2019-05-12T19:53:04.394Z,96459.34
2019-05-12T19:55:30.401Z,96453.95
2019-05-12T19:57:56.453Z,96455.50
2019-05-12T20:00:22.691Z,96453.56
2019-05-12T20:02:48.731Z,96451.73
2019-05-12T20:05:17.611Z,96451.33
2019-05-12T20:07:44.664Z,96457.37
2019-05-12T20:10:13.853Z,96462.36
2019-05-12T20:12:39.426Z,96469.66
2019-05-12T20:15:05.735Z,96469.88
2019-05-12T20:17:33.925Z,96465.20
2019-05-12T20:19:59.798Z,96466.60
2019-05-12T20:22:25.703Z,96469.39
2019-05-12T20:24:53.681Z,96468.36
2019-05-12T20:27:21.884Z,96471.30
2019-05-12T20:29:47.344Z,96470.73
2019-05-12T20:32:13.932Z,96473.89
2019-05-12T20:34:49.215Z,96473.49
2019-05-12T20:37:13.334Z,96467.66
2019-05-12T20:39:36.202Z,96475.33
2019-05-12T20:42:03.135Z,96470.94
2019-05-12T20:44:30.153Z,96468.81
2019-05-12T20:47:01.346Z,96477.58
2019-05-12T20:49:24.330Z,96467.80
2019-05-12T20:51:54.855Z,96466.09
2019-05-12T20:54:18.370Z,96464.36
2019-05-12T20:56:44.538Z,96469.47
2019-05-12T20:59:13.734Z,96472.22
2019-05-12T21:01:38.715Z,96473.89
2019-05-12T21:04:07.473Z,96480.42
2019-05-12T21:06:41.304Z,96482.37
2019-05-12T21:09:00.526Z,96481.75
2019-05-12T21:11:26.667Z,96481.67
2019-05-12T21:13:54.541Z,96479.94
2019-05-12T21:16:31.147Z,96481.48
2019-05-12T21:18:55.830Z,96488.63
2019-05-12T21:21:16.667Z,96491.70
2019-05-12T21:23:45.801Z,96485.66
2019-05-12T21:26:10.521Z,96489.75
2019-05-12T21:28:37.038Z,96498.84
2019-05-12T21:31:04.435Z,96493.53
2019-05-12T21:33:31.296Z,96495.36
2019-05-12T21:35:58.288Z,96485.77
2019-05-12T21:38:29.384Z,96490.47
2019-05-12T21:40:52.215Z,96497.32
2019-05-12T21:43:18.218Z,96500.19
2019-05-12T21:45:44.224Z,96501.41
2019-05-12T21:48:15.051Z,96497.74
2019-05-12T21:50:38.478Z,96499.45
2019-05-12T21:53:04.823Z,96494.55
2019-05-12T21:55:33.994Z,96492.73
2019-05-12T21:58:01.571Z,96506.43
2019-05-12T22:00:38.140Z,96509.68
2019-05-12T22:03:08.204Z,96514.41
2019-05-12T22:05:48.064Z,96520.22
2019-05-12T22:08:03.200Z,96520.93
2019-05-12T22:10:30.949Z,96520.93
2019-05-12T22:13:00.576Z,96513.38
2019-05-12T22:15:28.579Z,96522.27
2019-05-12T22:17:59.604Z,96519.28
2019-05-12T22:20:27.008Z,96526.13
2019-05-12T22:22:53.040Z,96532.53
2019-05-12T22:25:19.037Z,96538.45
2019-05-12T22:27:45.157Z,96534.56
2019-05-12T22:30:13.383Z,96544.05
2019-05-12T22:32:39.408Z,96550.61
2019-05-12T22:35:05.819Z,96546.70
2019-05-12T22:37:34.870Z,96542.10
2019-05-12T22:39:59.669Z,96550.89
2019-05-12T22:42:25.791Z,96549.84
2019-05-12T22:44:53.033Z,96549.75
2019-05-12T22:47:19.609Z,96554.44
2019-05-12T22:49:45.612Z,96551.94
2019-05-12T22:52:13.575Z,96555.83
2019-05-12T22:54:40.471Z,96557.16
2019-05-12T22:57:07.664Z,96556.23
2019-05-12T22:59:40.373Z,96559.17
2019-05-12T23:02:04.188Z,96567.33
2019-05-12T23:04:35.422Z,96567.20
2019-05-12T23:06:57.508Z,96561.89
2019-05-12T23:09:28.030Z,96559.55
2019-05-12T23:11:53.607Z,96570.16
2019-05-12T23:14:22.376Z,96563.83
2019-05-12T23:16:47.430Z,96556.67
2019-05-12T23:19:15.128Z,96569.79
2019-05-12T23:21:41.313Z,96571.39
2019-05-12T23:24:07.420Z,96557.92
2019-05-12T23:26:41.727Z,96561.41
2019-05-12T23:29:01.351Z,96568.13
2019-05-12T23:31:30.354Z,96569.46
2019-05-12T23:33:56.663Z,96564.98
2019-05-12T23:36:35.242Z,96564.56
2019-05-12T23:38:52.019Z,96563.76
2019-05-12T23:41:18.607Z,96570.39
2019-05-12T23:43:44.723Z,96571.59
2019-05-12T23:46:10.758Z,96575.77
2019-05-12T23:48:36.659Z,96576.46
2019-05-12T23:51:03.871Z,96573.31
2019-05-12T23:53:30.188Z,96576.03
2019-05-12T23:55:56.201Z,96573.71
2019-05-12T23:58:23.623Z,96576.23
